sensor_id;sensor_type;location;lat;lon;timestamp;pressure;altitude;pressure_sealevel;temperature;humidity
36092;BME280;22147;52.388;13.390;2023-02-18T00:02:15;100942.19;;;5.71;100.00
36092;BME280;22147;52.388;13.390;2023-02-18T00:04:44;100947.59;;;5.52;100.00
36092;BME280;22147;52.388;13.390;2023-02-18T00:07:14;100943.66;;;5.63;100.00
36092;BME280;22147;52.388;13.390;2023-02-18T00:09:44;100952.22;;;5.62;100.00
36092;BME280;22147;52.388;13.390;2023-02-18T00:12:16;100944.94;;;5.71;100.00
36092;BME280;22147;52.388;13.390;2023-02-18T00:14:46;100953.84;;;5.63;100.00
36092;BME280;22147;52.388;13.390;2023-02-18T00:17:16;100949.91;;;5.74;100.00
36092;BME280;22147;52.388;13.390;2023-02-18T00:19:46;100943.94;;;5.62;100.00
36092;BME280;22147;52.388;13.390;2023-02-18T00:22:16;100952.13;;;5.72;100.00
36092;BME280;22147;52.388;13.390;2023-02-18T00:24:46;100958.34;;;5.54;100.00
36092;BME280;22147;52.388;13.390;2023-02-18T00:27:16;100963.84;;;5.54;100.00
36092;BME280;22147;52.388;13.390;2023-02-18T00:29:46;100953.03;;;5.62;100.00
36092;BME280;22147;52.388;13.390;2023-02-18T00:32:16;100955.22;;;5.65;100.00
36092;BME280;22147;52.388;13.390;2023-02-18T00:34:46;100959.78;;;5.46;100.00
36092;BME280;22147;52.388;13.390;2023-02-18T00:37:16;100946.34;;;5.39;100.00
36092;BME280;22147;52.388;13.390;2023-02-18T00:39:45;100956.25;;;5.40;100.00
36092;BME280;22147;52.388;13.390;2023-02-18T00:42:16;100960.94;;;5.40;100.00
36092;BME280;22147;52.388;13.390;2023-02-18T00:44:46;100956.28;;;5.35;100.00
36092;BME280;22147;52.388;13.390;2023-02-18T00:47:15;100973.19;;;5.23;100.00
36092;BME280;22147;52.388;13.390;2023-02-18T00:49:45;100972.38;;;5.23;100.00
36092;BME280;22147;52.388;13.390;2023-02-18T00:52:15;100982.75;;;5.31;100.00
36092;BME280;22147;52.388;13.390;2023-02-18T00:54:45;100974.75;;;5.35;100.00
36092;BME280;22147;52.388;13.390;2023-02-18T00:57:15;100981.41;;;5.28;100.00
36092;BME280;22147;52.388;13.390;2023-02-18T00:59:45;100974.06;;;5.14;100.00
36092;BME280;22147;52.388;13.390;2023-02-18T01:02:15;100984.75;;;5.20;100.00
36092;BME280;22147;52.388;13.390;2023-02-18T01:04:45;100976.47;;;5.25;100.00
36092;BME280;22147;52.388;13.390;2023-02-18T01:07:15;100980.69;;;5.13;100.00
36092;BME280;22147;52.388;13.390;2023-02-18T01:09:44;100972.44;;;5.13;100.00
36092;BME280;22147;52.388;13.390;2023-02-18T01:12:15;100971.41;;;4.98;100.00
36092;BME280;22147;52.388;13.390;2023-02-18T01:14:45;100980.00;;;4.92;100.00
36092;BME280;22147;52.388;13.390;2023-02-18T01:17:15;100964.84;;;4.94;100.00
36092;BME280;22147;52.388;13.390;2023-02-18T01:19:45;100973.41;;;4.87;100.00
36092;BME280;22147;52.388;13.390;2023-02-18T01:22:15;100968.41;;;4.95;100.00
36092;BME280;22147;52.388;13.390;2023-02-18T01:24:44;100966.78;;;4.88;100.00
36092;BME280;22147;52.388;13.390;2023-02-18T01:27:15;100968.69;;;4.93;100.00
36092;BME280;22147;52.388;13.390;2023-02-18T01:29:45;100965.66;;;4.95;100.00
36092;BME280;22147;52.388;13.390;2023-02-18T01:32:15;100976.66;;;5.00;100.00
36092;BME280;22147;52.388;13.390;2023-02-18T01:34:45;100967.63;;;4.84;100.00
36092;BME280;22147;52.388;13.390;2023-02-18T01:37:15;100966.84;;;4.78;100.00
36092;BME280;22147;52.388;13.390;2023-02-18T01:39:45;100964.06;;;4.83;100.00
36092;BME280;22147;52.388;13.390;2023-02-18T01:42:26;100960.41;;;4.98;100.00
36092;BME280;22147;52.388;13.390;2023-02-18T01:51:12;100977.28;;;4.76;100.00
36092;BME280;22147;52.388;13.390;2023-02-18T01:56:41;100978.38;;;4.80;100.00
36092;BME280;22147;52.388;13.390;2023-02-18T01:59:36;100970.22;;;4.65;100.00
36092;BME280;22147;52.388;13.390;2023-02-18T02:02:17;100976.06;;;4.53;100.00
36092;BME280;22147;52.388;13.390;2023-02-18T02:04:50;100978.81;;;4.53;100.00
36092;BME280;22147;52.388;13.390;2023-02-18T02:07:25;100983.97;;;4.65;100.00
36092;BME280;22147;52.388;13.390;2023-02-18T02:09:58;100971.53;;;4.78;100.00
36092;BME280;22147;52.388;13.390;2023-02-18T02:13:08;100970.69;;;4.77;100.00
36092;BME280;22147;52.388;13.390;2023-02-18T02:15:55;100981.75;;;4.72;100.00
36092;BME280;22147;52.388;13.390;2023-02-18T02:18:58;100966.84;;;4.78;100.00
36092;BME280;22147;52.388;13.390;2023-02-18T02:35:08;100976.78;;;4.69;100.00
36092;BME280;22147;52.388;13.390;2023-02-18T02:44:29;100979.59;;;4.59;100.00
36092;BME280;22147;52.388;13.390;2023-02-18T02:47:19;100965.81;;;4.64;100.00
36092;BME280;22147;52.388;13.390;2023-02-18T02:50:11;100971.06;;;4.60;100.00
36092;BME280;22147;52.388;13.390;2023-02-18T02:53:01;100985.63;;;4.66;100.00
36092;BME280;22147;52.388;13.390;2023-02-18T02:55:40;100981.53;;;4.58;100.00
36092;BME280;22147;52.388;13.390;2023-02-18T02:58:15;100985.41;;;4.57;100.00
36092;BME280;22147;52.388;13.390;2023-02-18T03:05:02;100995.81;;;4.60;100.00
36092;BME280;22147;52.388;13.390;2023-02-18T03:16:50;100990.38;;;4.40;100.00
36092;BME280;22147;52.388;13.390;2023-02-18T03:19:48;100991.75;;;4.47;100.00
36092;BME280;22147;52.388;13.390;2023-02-18T03:22:34;100985.94;;;4.54;100.00
36092;BME280;22147;52.388;13.390;2023-02-18T03:25:11;100988.19;;;4.47;100.00
36092;BME280;22147;52.388;13.390;2023-02-18T03:27:52;100984.59;;;4.46;100.00
36092;BME280;22147;52.388;13.390;2023-02-18T03:30:32;100979.38;;;4.45;100.00
36092;BME280;22147;52.388;13.390;2023-02-18T03:33:14;100988.16;;;4.57;100.00
36092;BME280;22147;52.388;13.390;2023-02-18T03:35:49;100991.72;;;4.58;100.00
36092;BME280;22147;52.388;13.390;2023-02-18T03:39:00;100984.06;;;4.39;100.00
36092;BME280;22147;52.388;13.390;2023-02-18T03:41:38;100990.41;;;4.29;100.00
36092;BME280;22147;52.388;13.390;2023-02-18T03:44:10;100977.41;;;4.51;100.00
36092;BME280;22147;52.388;13.390;2023-02-18T03:46:43;100981.06;;;4.41;100.00
36092;BME280;22147;52.388;13.390;2023-02-18T03:49:13;100981.34;;;4.34;100.00
36092;BME280;22147;52.388;13.390;2023-02-18T03:51:44;100976.97;;;4.28;100.00
36092;BME280;22147;52.388;13.390;2023-02-18T03:54:14;100977.97;;;4.53;100.00
36092;BME280;22147;52.388;13.390;2023-02-18T03:56:44;100977.72;;;4.49;100.00
36092;BME280;22147;52.388;13.390;2023-02-18T03:59:14;100981.34;;;4.29;100.00
36092;BME280;22147;52.388;13.390;2023-02-18T04:01:44;100976.41;;;4.31;100.00
36092;BME280;22147;52.388;13.390;2023-02-18T04:04:15;100978.69;;;4.08;100.00
36092;BME280;22147;52.388;13.390;2023-02-18T04:06:45;100986.88;;;4.19;100.00
36092;BME280;22147;52.388;13.390;2023-02-18T04:09:15;100971.47;;;4.23;100.00
36092;BME280;22147;52.388;13.390;2023-02-18T04:11:45;100979.19;;;4.16;100.00
36092;BME280;22147;52.388;13.390;2023-02-18T04:14:15;100980.81;;;4.17;100.00
36092;BME280;22147;52.388;13.390;2023-02-18T04:16:45;100985.22;;;4.13;100.00
36092;BME280;22147;52.388;13.390;2023-02-18T04:19:15;100979.25;;;4.00;100.00
36092;BME280;22147;52.388;13.390;2023-02-18T04:21:45;100984.13;;;4.19;100.00
36092;BME280;22147;52.388;13.390;2023-02-18T04:24:16;100988.28;;;4.06;100.00
36092;BME280;22147;52.388;13.390;2023-02-18T04:26:46;100988.03;;;4.02;100.00
36092;BME280;22147;52.388;13.390;2023-02-18T04:29:16;100975.66;;;3.95;100.00
36092;BME280;22147;52.388;13.390;2023-02-18T04:31:46;100976.78;;;3.94;100.00
36092;BME280;22147;52.388;13.390;2023-02-18T04:34:16;100983.38;;;3.87;100.00
36092;BME280;22147;52.388;13.390;2023-02-18T04:36:46;100978.16;;;3.96;100.00
36092;BME280;22147;52.388;13.390;2023-02-18T04:39:16;100990.22;;;4.00;100.00
36092;BME280;22147;52.388;13.390;2023-02-18T04:41:46;100998.75;;;3.99;100.00
36092;BME280;22147;52.388;13.390;2023-02-18T04:44:16;100993.53;;;3.97;100.00
36092;BME280;22147;52.388;13.390;2023-02-18T04:46:47;100998.47;;;3.95;100.00
36092;BME280;22147;52.388;13.390;2023-02-18T04:49:17;100991.34;;;3.94;100.00
36092;BME280;22147;52.388;13.390;2023-02-18T04:51:47;100997.63;;;4.10;100.00
36092;BME280;22147;52.388;13.390;2023-02-18T04:54:17;100996.50;;;4.26;100.00
36092;BME280;22147;52.388;13.390;2023-02-18T04:56:47;101003.34;;;4.29;100.00
36092;BME280;22147;52.388;13.390;2023-02-18T04:59:17;100997.78;;;4.44;100.00
36092;BME280;22147;52.388;13.390;2023-02-18T05:01:47;100998.41;;;4.36;100.00
36092;BME280;22147;52.388;13.390;2023-02-18T05:04:17;100998.31;;;4.57;100.00
36092;BME280;22147;52.388;13.390;2023-02-18T05:06:47;100998.34;;;4.52;100.00
36092;BME280;22147;52.388;13.390;2023-02-18T05:09:18;101002.44;;;4.59;100.00
36092;BME280;22147;52.388;13.390;2023-02-18T05:11:48;100997.72;;;4.65;100.00
36092;BME280;22147;52.388;13.390;2023-02-18T05:14:18;100990.91;;;4.57;100.00
36092;BME280;22147;52.388;13.390;2023-02-18T05:16:48;100994.19;;;4.59;100.00
36092;BME280;22147;52.388;13.390;2023-02-18T05:19:18;100993.34;;;4.59;100.00
36092;BME280;22147;52.388;13.390;2023-02-18T05:21:48;100998.03;;;4.58;100.00
36092;BME280;22147;52.388;13.390;2023-02-18T05:24:18;100987.59;;;4.55;100.00
36092;BME280;22147;52.388;13.390;2023-02-18T05:26:48;100996.09;;;4.64;100.00
36092;BME280;22147;52.388;13.390;2023-02-18T05:29:18;100986.19;;;4.63;100.00
36092;BME280;22147;52.388;13.390;2023-02-18T05:31:48;100994.47;;;4.53;100.00
36092;BME280;22147;52.388;13.390;2023-02-18T05:34:18;100988.38;;;4.61;100.00
36092;BME280;22147;52.388;13.390;2023-02-18T05:36:48;100990.91;;;4.57;100.00
36092;BME280;22147;52.388;13.390;2023-02-18T05:39:18;100989.53;;;4.49;100.00
36092;BME280;22147;52.388;13.390;2023-02-18T05:41:48;100991.13;;;4.61;100.00
36092;BME280;22147;52.388;13.390;2023-02-18T05:44:18;100983.44;;;4.63;100.00
36092;BME280;22147;52.388;13.390;2023-02-18T05:47:07;100986.72;;;4.70;100.00
36092;BME280;22147;52.388;13.390;2023-02-18T05:49:42;100976.78;;;4.69;100.00
36092;BME280;22147;52.388;13.390;2023-02-18T05:52:12;100976.53;;;4.65;100.00
36092;BME280;22147;52.388;13.390;2023-02-18T05:54:42;100976.69;;;4.89;100.00
36092;BME280;22147;52.388;13.390;2023-02-18T05:57:14;100978.09;;;4.82;100.00
36092;BME280;22147;52.388;13.390;2023-02-18T05:59:44;100981.13;;;4.85;100.00
36092;BME280;22147;52.388;13.390;2023-02-18T06:02:12;100981.72;;;4.77;100.00
36092;BME280;22147;52.388;13.390;2023-02-18T06:04:41;100980.59;;;4.83;100.00
36092;BME280;22147;52.388;13.390;2023-02-18T06:07:09;100981.66;;;4.87;100.00
36092;BME280;22147;52.388;13.390;2023-02-18T06:09:38;100974.75;;;4.90;100.00
36092;BME280;22147;52.388;13.390;2023-02-18T06:12:07;100987.94;;;4.93;100.00
36092;BME280;22147;52.388;13.390;2023-02-18T06:14:38;100987.94;;;4.93;100.00
36092;BME280;22147;52.388;13.390;2023-02-18T06:17:12;100979.19;;;4.86;100.00
36092;BME280;22147;52.388;13.390;2023-02-18T06:19:44;100973.47;;;4.77;100.00
36092;BME280;22147;52.388;13.390;2023-02-18T06:22:14;100975.97;;;4.63;100.00
36092;BME280;22147;52.388;13.390;2023-02-18T06:24:44;100977.91;;;4.68;100.00
36092;BME280;22147;52.388;13.390;2023-02-18T06:27:15;100980.66;;;4.63;100.00
36092;BME280;22147;52.388;13.390;2023-02-18T06:29:45;100978.91;;;4.82;100.00
36092;BME280;22147;52.388;13.390;2023-02-18T06:32:15;100974.53;;;4.76;100.00
36092;BME280;22147;52.388;13.390;2023-02-18T06:34:45;100979.78;;;4.78;100.00
36092;BME280;22147;52.388;13.390;2023-02-18T06:37:13;100975.41;;;4.77;100.00
36092;BME280;22147;52.388;13.390;2023-02-18T06:39:42;100968.50;;;4.79;100.00
36092;BME280;22147;52.388;13.390;2023-02-18T06:42:12;100977.28;;;4.76;100.00
36092;BME280;22147;52.388;13.390;2023-02-18T06:44:46;100971.50;;;4.83;100.00
36092;BME280;22147;52.388;13.390;2023-02-18T06:47:16;100974.34;;;5.12;100.00
36092;BME280;22147;52.388;13.390;2023-02-18T06:49:45;100972.50;;;5.02;100.00
36092;BME280;22147;52.388;13.390;2023-02-18T06:52:15;100974.19;;;4.93;100.00
36092;BME280;22147;52.388;13.390;2023-02-18T06:54:45;100961.81;;;4.96;100.00
36092;BME280;22147;52.388;13.390;2023-02-18T06:57:15;100955.19;;;4.97;100.00
36092;BME280;22147;52.388;13.390;2023-02-18T06:59:44;100961.22;;;4.99;100.00
36092;BME280;22147;52.388;13.390;2023-02-18T07:02:14;100958.91;;;5.16;100.00
36092;BME280;22147;52.388;13.390;2023-02-18T07:04:44;100960.56;;;5.17;100.00
36092;BME280;22147;52.388;13.390;2023-02-18T07:07:14;100971.81;;;5.21;100.00
36092;BME280;22147;52.388;13.390;2023-02-18T07:09:44;100957.94;;;5.36;100.00
36092;BME280;22147;52.388;13.390;2023-02-18T07:12:14;100951.16;;;5.23;100.00
36092;BME280;22147;52.388;13.390;2023-02-18T07:14:44;100961.31;;;5.28;100.00
36092;BME280;22147;52.388;13.390;2023-02-18T07:17:14;100972.28;;;5.33;100.00
36092;BME280;22147;52.388;13.390;2023-02-18T07:19:44;100965.91;;;5.38;100.00
36092;BME280;22147;52.388;13.390;2023-02-18T07:22:14;100967.88;;;5.32;100.00
36092;BME280;22147;52.388;13.390;2023-02-18T07:24:44;100972.72;;;5.11;100.00
36092;BME280;22147;52.388;13.390;2023-02-18T07:27:13;100969.69;;;5.07;100.00
36092;BME280;22147;52.388;13.390;2023-02-18T07:29:43;100963.09;;;5.08;100.00
36092;BME280;22147;52.388;13.390;2023-02-18T07:32:16;100961.09;;;5.14;100.00
36092;BME280;22147;52.388;13.390;2023-02-18T07:34:45;100963.03;;;5.19;100.00
36092;BME280;22147;52.388;13.390;2023-02-18T07:37:15;100960.81;;;5.21;100.00
36092;BME280;22147;52.388;13.390;2023-02-18T07:39:45;100965.06;;;5.03;100.00
36092;BME280;22147;52.388;13.390;2023-02-18T07:42:15;100969.09;;;5.16;100.00
36092;BME280;22147;52.388;13.390;2023-02-18T07:44:45;100956.84;;;4.98;100.00
36092;BME280;22147;52.388;13.390;2023-02-18T07:47:16;100951.66;;;4.91;100.00
36092;BME280;22147;52.388;13.390;2023-02-18T07:49:47;100935.66;;;4.93;100.00
36092;BME280;22147;52.388;13.390;2023-02-18T07:52:17;100942.47;;;5.06;100.00
36092;BME280;22147;52.388;13.390;2023-02-18T07:54:47;100928.50;;;4.92;100.00
36092;BME280;22147;52.388;13.390;2023-02-18T07:57:17;100924.63;;;4.93;100.00
36092;BME280;22147;52.388;13.390;2023-02-18T07:59:47;100922.81;;;4.78;100.00
36092;BME280;22147;52.388;13.390;2023-02-18T08:02:22;100923.06;;;4.82;100.00
36092;BME280;22147;52.388;13.390;2023-02-18T08:04:52;100926.41;;;4.74;100.00
36092;BME280;22147;52.388;13.390;2023-02-18T08:07:21;100921.75;;;4.69;100.00
36092;BME280;22147;52.388;13.390;2023-02-18T08:09:51;100910.75;;;4.69;100.00
36092;BME280;22147;52.388;13.390;2023-02-18T08:12:21;100907.78;;;4.60;100.00
36092;BME280;22147;52.388;13.390;2023-02-18T08:14:51;100909.16;;;4.63;100.00
36092;BME280;22147;52.388;13.390;2023-02-18T08:17:20;100904.44;;;4.68;100.00
36092;BME280;22147;52.388;13.390;2023-02-18T08:19:50;100903.63;;;4.68;100.00
36092;BME280;22147;52.388;13.390;2023-02-18T08:22:20;100895.97;;;4.60;100.00
36092;BME280;22147;52.388;13.390;2023-02-18T08:24:53;100879.19;;;4.56;100.00
36092;BME280;22147;52.388;13.390;2023-02-18T08:27:23;100883.31;;;4.59;100.00
36092;BME280;22147;52.388;13.390;2023-02-18T08:29:53;100889.44;;;4.45;100.00
36092;BME280;22147;52.388;13.390;2023-02-18T08:32:27;100883.41;;;4.43;100.00
36092;BME280;22147;52.388;13.390;2023-02-18T08:34:57;100875.16;;;4.43;100.00
36092;BME280;22147;52.388;13.390;2023-02-18T08:37:27;100876.50;;;4.46;100.00
36092;BME280;22147;52.388;13.390;2023-02-18T08:40:17;100871.25;;;4.49;100.00
36092;BME280;22147;52.388;13.390;2023-02-18T08:42:47;100861.34;;;4.54;100.00
36092;BME280;22147;52.388;13.390;2023-02-18T08:45:17;100850.00;;;4.60;100.00
36092;BME280;22147;52.388;13.390;2023-02-18T08:47:48;100845.00;;;4.67;100.00
36092;BME280;22147;52.388;13.390;2023-02-18T08:50:38;100844.47;;;4.65;100.00
36092;BME280;22147;52.388;13.390;2023-02-18T08:53:08;100842.78;;;4.69;100.00
36092;BME280;22147;52.388;13.390;2023-02-18T08:55:40;100833.97;;;4.73;100.00
36092;BME280;22147;52.388;13.390;2023-02-18T08:58:11;100831.47;;;4.76;100.00
36092;BME280;22147;52.388;13.390;2023-02-18T09:00:44;100832.59;;;4.75;100.00
36092;BME280;22147;52.388;13.390;2023-02-18T09:03:14;100838.09;;;4.75;100.00
36092;BME280;22147;52.388;13.390;2023-02-18T09:05:44;100830.63;;;4.81;100.00
36092;BME280;22147;52.388;13.390;2023-02-18T09:08:14;100830.09;;;4.79;100.00
36092;BME280;22147;52.388;13.390;2023-02-18T09:10:44;100828.94;;;4.85;100.00
36092;BME280;22147;52.388;13.390;2023-02-18T09:13:14;100813.66;;;5.03;100.00
36092;BME280;22147;52.388;13.390;2023-02-18T09:15:44;100806.97;;;5.09;100.00
36092;BME280;22147;52.388;13.390;2023-02-18T09:18:15;100797.91;;;5.08;100.00
36092;BME280;22147;52.388;13.390;2023-02-18T09:20:45;100796.84;;;5.04;100.00
36092;BME280;22147;52.388;13.390;2023-02-18T09:23:15;100788.78;;;5.13;100.00
36092;BME280;22147;52.388;13.390;2023-02-18T09:25:45;100787.38;;;5.16;100.00
36092;BME280;22147;52.388;13.390;2023-02-18T09:28:15;100789.66;;;5.38;100.00
36092;BME280;22147;52.388;13.390;2023-02-18T09:30:45;100784.97;;;5.09;100.00
36092;BME280;22147;52.388;13.390;2023-02-18T09:33:17;100778.84;;;5.12;100.00
36092;BME280;22147;52.388;13.390;2023-02-18T09:35:48;100776.50;;;5.29;100.00
36092;BME280;22147;52.388;13.390;2023-02-18T09:38:18;100771.38;;;5.18;100.00
36092;BME280;22147;52.388;13.390;2023-02-18T09:40:53;100767.53;;;5.19;100.00
36092;BME280;22147;52.388;13.390;2023-02-18T09:43:39;100758.47;;;4.89;100.00
36092;BME280;22147;52.388;13.390;2023-02-18T09:46:23;100752.69;;;5.15;100.00
36092;BME280;22147;52.388;13.390;2023-02-18T09:49:07;100738.97;;;5.09;100.00
36092;BME280;22147;52.388;13.390;2023-02-18T09:51:47;100741.69;;;5.15;100.00
36092;BME280;22147;52.388;13.390;2023-02-18T09:54:20;100723.78;;;5.12;100.00
36092;BME280;22147;52.388;13.390;2023-02-18T09:56:52;100719.69;;;5.09;100.00
36092;BME280;22147;52.388;13.390;2023-02-18T09:59:25;100707.81;;;5.14;100.00
36092;BME280;22147;52.388;13.390;2023-02-18T10:01:57;100701.13;;;5.20;100.00
36092;BME280;22147;52.388;13.390;2023-02-18T10:04:43;100695.22;;;5.32;100.00
36092;BME280;22147;52.388;13.390;2023-02-18T10:07:26;100694.47;;;5.26;100.00
36092;BME280;22147;52.388;13.390;2023-02-18T10:10:17;100699.78;;;5.18;100.00
36092;BME280;22147;52.388;13.390;2023-02-18T10:12:53;100683.09;;;5.09;100.00
36092;BME280;22147;52.388;13.390;2023-02-18T10:15:29;100688.31;;;5.10;100.00
36092;BME280;22147;52.388;13.390;2023-02-18T10:18:01;100695.06;;;5.23;100.00
36092;BME280;22147;52.388;13.390;2023-02-18T10:20:32;100696.47;;;5.21;100.00
36092;BME280;22147;52.388;13.390;2023-02-18T10:23:03;100676.47;;;5.10;100.00
36092;BME280;22147;52.388;13.390;2023-02-18T10:25:43;100665.94;;;5.17;100.00
36092;BME280;22147;52.388;13.390;2023-02-18T10:28:22;100652.56;;;5.05;100.00
36092;BME280;22147;52.388;13.390;2023-02-18T10:31:02;100650.13;;;5.04;100.00
36092;BME280;22147;52.388;13.390;2023-02-18T10:33:58;100631.84;;;5.13;100.00
36092;BME280;22147;52.388;13.390;2023-02-18T10:40:08;100619.00;;;5.27;100.00
36092;BME280;22147;52.388;13.390;2023-02-18T10:43:24;100610.91;;;5.12;100.00
36092;BME280;22147;52.388;13.390;2023-02-18T10:49:52;100576.97;;;5.41;100.00
36092;BME280;22147;52.388;13.390;2023-02-18T10:53:00;100567.38;;;5.38;100.00
36092;BME280;22147;52.388;13.390;2023-02-18T10:55:42;100563.63;;;5.48;100.00
36092;BME280;22147;52.388;13.390;2023-02-18T10:58:35;100562.22;;;5.32;100.00
36092;BME280;22147;52.388;13.390;2023-02-18T11:01:20;100551.41;;;5.54;100.00
36092;BME280;22147;52.388;13.390;2023-02-18T11:04:26;100539.34;;;5.69;100.00
36092;BME280;22147;52.388;13.390;2023-02-18T11:07:26;100523.66;;;5.50;100.00
36092;BME280;22147;52.388;13.390;2023-02-18T11:10:14;100513.69;;;5.55;100.00
36092;BME280;22147;52.388;13.390;2023-02-18T11:13:07;100496.13;;;5.50;100.00
36092;BME280;22147;52.388;13.390;2023-02-18T11:16:00;100490.53;;;5.56;100.00
36092;BME280;22147;52.388;13.390;2023-02-18T11:18:43;100472.38;;;5.55;100.00
36092;BME280;22147;52.388;13.390;2023-02-18T11:21:29;100461.50;;;5.77;100.00
36092;BME280;22147;52.388;13.390;2023-02-18T11:24:15;100458.66;;;5.49;100.00
36092;BME280;22147;52.388;13.390;2023-02-18T11:26:45;100448.22;;;5.65;100.00
36092;BME280;22147;52.388;13.390;2023-02-18T11:29:30;100436.09;;;5.47;100.00
36092;BME280;22147;52.388;13.390;2023-02-18T11:32:01;100440.63;;;5.57;100.00
36092;BME280;22147;52.388;13.390;2023-02-18T11:34:32;100443.75;;;5.69;100.00
36092;BME280;22147;52.388;13.390;2023-02-18T11:37:32;100429.53;;;5.62;100.00
36092;BME280;22147;52.388;13.390;2023-02-18T11:40:05;100424.97;;;5.71;100.00
36092;BME280;22147;52.388;13.390;2023-02-18T11:42:34;100415.69;;;5.81;100.00
36092;BME280;22147;52.388;13.390;2023-02-18T11:45:03;100404.97;;;5.80;100.00
36092;BME280;22147;52.388;13.390;2023-02-18T11:47:36;100410.47;;;5.66;100.00
36092;BME280;22147;52.388;13.390;2023-02-18T11:52:46;100379.97;;;5.90;100.00
36092;BME280;22147;52.388;13.390;2023-02-18T11:55:27;100372.66;;;5.99;100.00
36092;BME280;22147;52.388;13.390;2023-02-18T11:58:05;100366.22;;;6.04;100.00
36092;BME280;22147;52.388;13.390;2023-02-18T12:00:43;100355.19;;;6.18;100.00
36092;BME280;22147;52.388;13.390;2023-02-18T12:03:41;100350.19;;;6.20;100.00
36092;BME280;22147;52.388;13.390;2023-02-18T12:06:36;100348.34;;;6.15;100.00
36092;BME280;22147;52.388;13.390;2023-02-18T12:09:37;100331.91;;;6.24;100.00
36092;BME280;22147;52.388;13.390;2023-02-18T12:12:25;100327.47;;;6.37;100.00
36092;BME280;22147;52.388;13.390;2023-02-18T12:15:02;100317.59;;;6.36;100.00
36092;BME280;22147;52.388;13.390;2023-02-18T12:17:40;100310.31;;;6.40;100.00
36092;BME280;22147;52.388;13.390;2023-02-18T12:31:04;100294.06;;;7.20;100.00
36092;BME280;22147;52.388;13.390;2023-02-18T12:44:53;100287.13;;;7.62;100.00
36092;BME280;22147;52.388;13.390;2023-02-18T12:53:15;100269.66;;;8.02;100.00
36092;BME280;22147;52.388;13.390;2023-02-18T13:04:58;100253.81;;;8.60;100.00
36092;BME280;22147;52.388;13.390;2023-02-18T13:08:16;100253.81;;;8.60;100.00
36092;BME280;22147;52.388;13.390;2023-02-18T13:14:12;100232.78;;;8.85;100.00
36092;BME280;22147;52.388;13.390;2023-02-18T13:16:51;100235.41;;;8.81;100.00
36092;BME280;22147;52.388;13.390;2023-02-18T13:19:50;100235.69;;;8.97;100.00
36092;BME280;22147;52.388;13.390;2023-02-18T13:22:24;100217.59;;;9.08;100.00
36092;BME280;22147;52.388;13.390;2023-02-18T13:24:58;100224.28;;;8.99;100.00
36092;BME280;22147;52.388;13.390;2023-02-18T13:30:51;100215.91;;;9.16;100.00
36092;BME280;22147;52.388;13.390;2023-02-18T13:34:01;100216.69;;;9.34;100.00
36092;BME280;22147;52.388;13.390;2023-02-18T13:40:39;100217.97;;;9.36;100.00
36092;BME280;22147;52.388;13.390;2023-02-18T13:43:31;100213.72;;;9.39;100.00
36092;BME280;22147;52.388;13.390;2023-02-18T13:46:20;100231.53;;;9.29;100.00
36092;BME280;22147;52.388;13.390;2023-02-18T13:49:08;100219.97;;;9.27;100.00
36092;BME280;22147;52.388;13.390;2023-02-18T13:51:49;100221.28;;;9.21;100.00
36092;BME280;22147;52.388;13.390;2023-02-18T13:54:28;100206.94;;;9.19;100.00
36092;BME280;22147;52.388;13.390;2023-02-18T13:57:14;100220.63;;;9.24;100.00
36092;BME280;22147;52.388;13.390;2023-02-18T14:00:03;100213.47;;;9.23;100.00
36092;BME280;22147;52.388;13.390;2023-02-18T14:02:36;100214.13;;;9.11;100.00
36092;BME280;22147;52.388;13.390;2023-02-18T14:05:38;100219.81;;;9.24;100.00
36092;BME280;22147;52.388;13.390;2023-02-18T14:08:30;100219.34;;;9.13;100.00
36092;BME280;22147;52.388;13.390;2023-02-18T14:13:54;100221.34;;;8.95;100.00
36092;BME280;22147;52.388;13.390;2023-02-18T14:27:42;100211.09;;;8.87;100.00
36092;BME280;22147;52.388;13.390;2023-02-18T14:32:58;100230.47;;;8.87;100.00
36092;BME280;22147;52.388;13.390;2023-02-18T14:36:01;100247.09;;;8.87;100.00
36092;BME280;22147;52.388;13.390;2023-02-18T14:39:01;100220.25;;;8.87;100.00
36092;BME280;22147;52.388;13.390;2023-02-18T14:49:33;100217.94;;;8.89;100.00
36092;BME280;22147;52.388;13.390;2023-02-18T14:52:46;100221.03;;;8.96;100.00
36092;BME280;22147;52.388;13.390;2023-02-18T14:55:33;100227.72;;;8.95;100.00
36092;BME280;22147;52.388;13.390;2023-02-18T14:58:31;100234.56;;;8.89;100.00
36092;BME280;22147;52.388;13.390;2023-02-18T15:01:20;100233.56;;;9.03;100.00
36092;BME280;22147;52.388;13.390;2023-02-18T15:03:57;100229.50;;;9.00;100.00
36092;BME280;22147;52.388;13.390;2023-02-18T15:09:21;100239.91;;;8.94;100.00
36092;BME280;22147;52.388;13.390;2023-02-18T15:11:59;100235.84;;;9.01;100.00
36092;BME280;22147;52.388;13.390;2023-02-18T15:14:41;100238.28;;;9.02;100.00
36092;BME280;22147;52.388;13.390;2023-02-18T15:17:24;100244.34;;;8.95;100.00
36092;BME280;22147;52.388;13.390;2023-02-18T15:20:05;100253.94;;;8.89;100.00
36092;BME280;22147;52.388;13.390;2023-02-18T15:22:37;100271.53;;;9.02;100.00
36092;BME280;22147;52.388;13.390;2023-02-18T15:25:10;100272.66;;;9.01;100.00
36092;BME280;22147;52.388;13.390;2023-02-18T15:27:43;100276.09;;;8.98;100.00
36092;BME280;22147;52.388;13.390;2023-02-18T15:32:59;100252.00;;;8.81;100.00
36092;BME280;22147;52.388;13.390;2023-02-18T15:35:31;100255.91;;;8.80;100.00